EZY928Z EGNT-EGAA
Flight info
| Callsign | EZY928Z |
|---|---|
| Flight time | 0h 38m |
| Altitude | 23000 |
| Route | GIRLI P18 GASKO/N0405F250 P16 RIBEL/N0394F230 P16 CROFT/N0401F240 Y70 KOLID L70 GUNTU Z196 DIGMA M146 IPSET P6 BELZU |
| Aircraft | A20N/M-SDE2E3FGHIRWXY/LB1 |
Departure
| Time | 2026-04-27 23:51 |
|---|---|
| Airport | Newcastle International Airport (EGNT) |
Arrival
| Time | 2026-04-28 00:30 |
|---|---|
| Airport | Belfast International Airport (EGAA) |
| Time | Latitude | Longitude | Altitude | Speed | Heading |
|---|---|---|---|---|---|
| 2026-04-27 22:50 | 55.03737 | -1.70752 | 269 ft | 0 kts | 183° |
| 2026-04-27 22:57 | 55.03737 | -1.70751 | 269 ft | 0 kts | 184° |
| 2026-04-27 23:03 | 55.03739 | -1.70751 | 269 ft | 0 kts | 184° |
| 2026-04-27 23:03 | 55.03745 | -1.70750 | 269 ft | 0 kts | 184° |
| 2026-04-27 23:04 | 55.03749 | -1.70749 | 269 ft | 0 kts | 184° |
| 2026-04-27 23:04 | 55.03750 | -1.70749 | 269 ft | 0 kts | 184° |
| 2026-04-27 23:14 | 55.03751 | -1.70749 | 269 ft | 0 kts | 185° |
| 2026-04-27 23:16 | 55.03752 | -1.70749 | 269 ft | 0 kts | 185° |
| 2026-04-27 23:18 | 55.03752 | -1.70748 | 269 ft | 0 kts | 185° |
| 2026-04-27 23:39 | 55.03753 | -1.70748 | 269 ft | 0 kts | 186° |
| 2026-04-27 23:39 | 55.03754 | -1.70748 | 269 ft | 0 kts | 186° |
| 2026-04-27 23:40 | 55.03765 | -1.70746 | 269 ft | 0 kts | 185° |
| 2026-04-27 23:40 | 55.03776 | -1.70744 | 269 ft | 2 kts | 181° |
| 2026-04-27 23:40 | 55.03791 | -1.70749 | 269 ft | 2 kts | 155° |
| 2026-04-27 23:40 | 55.03803 | -1.70763 | 269 ft | 2 kts | 134° |
| 2026-04-27 23:41 | 55.03812 | -1.70784 | 269 ft | 2 kts | 113° |
| 2026-04-27 23:41 | 55.03816 | -1.70809 | 269 ft | 2 kts | 91° |
| 2026-04-27 23:41 | 55.03816 | -1.70824 | 269 ft | 0 kts | 91° |
| 2026-04-27 23:46 | 55.03816 | -1.70823 | 269 ft | 0 kts | 91° |
| 2026-04-27 23:47 | 55.03814 | -1.70772 | 269 ft | 9 kts | 94° |
| 2026-04-27 23:47 | 55.03812 | -1.70704 | 269 ft | 10 kts | 93° |
| 2026-04-27 23:47 | 55.03805 | -1.70558 | 266 ft | 13 kts | 95° |
| 2026-04-27 23:47 | 55.03775 | -1.70431 | 264 ft | 11 kts | 153° |
| 2026-04-27 23:48 | 55.03691 | -1.70431 | 264 ft | 12 kts | 182° |
| 2026-04-27 23:48 | 55.03613 | -1.70475 | 265 ft | 11 kts | 227° |
| 2026-04-27 23:48 | 55.03595 | -1.70586 | 267 ft | 3 kts | 262° |
| 2026-04-27 23:48 | 55.03581 | -1.70621 | 268 ft | 6 kts | 216° |
| 2026-04-27 23:49 | 55.03511 | -1.70635 | 268 ft | 9 kts | 181° |
| 2026-04-27 23:49 | 55.03484 | -1.70636 | 268 ft | 1 kts | 181° |
| 2026-04-27 23:49 | 55.03441 | -1.70639 | 268 ft | 10 kts | 182° |
| 2026-04-27 23:49 | 55.03418 | -1.70640 | 268 ft | 8 kts | 176° |
| 2026-04-27 23:50 | 55.03404 | -1.70636 | 268 ft | 9 kts | 169° |
| 2026-04-27 23:50 | 55.03372 | -1.70572 | 267 ft | 9 kts | 78° |
| 2026-04-27 23:50 | 55.03442 | -1.70291 | 265 ft | 59 kts | 63° |
| 2026-04-27 23:50 | 55.03722 | -1.69245 | 246 ft | 130 kts | 65° |
| 2026-04-27 23:51 | 55.04162 | -1.67583 | 524 ft | 160 kts | 64° |
| 2026-04-27 23:51 | 55.04624 | -1.65856 | 1351 ft | 157 kts | 63° |
| 2026-04-27 23:51 | 55.05062 | -1.64214 | 2231 ft | 152 kts | 62° |
| 2026-04-27 23:51 | 55.05523 | -1.62492 | 2801 ft | 166 kts | 62° |
| 2026-04-27 23:52 | 55.06025 | -1.60612 | 3322 ft | 182 kts | 62° |
| 2026-04-27 23:52 | 55.06463 | -1.58427 | 3777 ft | 207 kts | 82° |
| 2026-04-27 23:52 | 55.06175 | -1.55886 | 4614 ft | 222 kts | 112° |
| 2026-04-27 23:52 | 55.05148 | -1.53887 | 5504 ft | 237 kts | 142° |
| 2026-04-27 23:53 | 55.03510 | -1.53052 | 6145 ft | 262 kts | 175° |
| 2026-04-27 23:53 | 55.01656 | -1.53144 | 6758 ft | 279 kts | 178° |
| 2026-04-27 23:53 | 54.99660 | -1.53227 | 7385 ft | 294 kts | 176° |
| 2026-04-27 23:53 | 54.97605 | -1.53568 | 8001 ft | 302 kts | 191° |
| 2026-04-27 23:54 | 54.95660 | -1.54945 | 8375 ft | 307 kts | 208° |
| 2026-04-27 23:54 | 54.93830 | -1.56835 | 8434 ft | 307 kts | 211° |
| 2026-04-27 23:54 | 54.92023 | -1.58796 | 8417 ft | 307 kts | 211° |
| 2026-04-27 23:54 | 54.90204 | -1.60753 | 8406 ft | 307 kts | 210° |
| 2026-04-27 23:55 | 54.88396 | -1.62658 | 8405 ft | 306 kts | 210° |
| 2026-04-27 23:55 | 54.86563 | -1.64553 | 8394 ft | 306 kts | 210° |
| 2026-04-27 23:55 | 54.84727 | -1.66437 | 8476 ft | 309 kts | 209° |
| 2026-04-27 23:55 | 54.82894 | -1.68316 | 9236 ft | 309 kts | 209° |
| 2026-04-27 23:56 | 54.81076 | -1.70180 | 10412 ft | 300 kts | 209° |
| 2026-04-27 23:56 | 54.79343 | -1.71955 | 11535 ft | 289 kts | 209° |
| 2026-04-27 23:56 | 54.77638 | -1.73699 | 12455 ft | 286 kts | 209° |
| 2026-04-27 23:56 | 54.75933 | -1.75435 | 13151 ft | 291 kts | 209° |
| 2026-04-27 23:57 | 54.74166 | -1.77234 | 13839 ft | 296 kts | 209° |
| 2026-04-27 23:57 | 54.72402 | -1.79032 | 14524 ft | 300 kts | 208° |
| 2026-04-27 23:57 | 54.70503 | -1.80535 | 15216 ft | 301 kts | 193° |
| 2026-04-27 23:57 | 54.68479 | -1.81379 | 15883 ft | 302 kts | 186° |
| 2026-04-27 23:58 | 54.66424 | -1.81992 | 16512 ft | 307 kts | 184° |
| 2026-04-27 23:58 | 54.64314 | -1.82583 | 17143 ft | 312 kts | 184° |
| 2026-04-27 23:58 | 54.62145 | -1.83216 | 17774 ft | 317 kts | 185° |
| 2026-04-27 23:58 | 54.59977 | -1.83876 | 18427 ft | 322 kts | 185° |
| 2026-04-27 23:59 | 54.57769 | -1.84568 | 19169 ft | 325 kts | 185° |
| 2026-04-27 23:59 | 54.55559 | -1.85267 | 19737 ft | 330 kts | 185° |
| 2026-04-27 23:59 | 54.53292 | -1.85980 | 20248 ft | 337 kts | 185° |
| 2026-04-27 23:59 | 54.50979 | -1.86745 | 20804 ft | 343 kts | 191° |
| 2026-04-28 00:00 | 54.48818 | -1.88506 | 21299 ft | 351 kts | 223° |
| 2026-04-28 00:00 | 54.47341 | -1.91708 | 21831 ft | 340 kts | 255° |
| 2026-04-28 00:00 | 54.46797 | -1.95506 | 22325 ft | 327 kts | 275° |
| 2026-04-28 00:00 | 54.46585 | -1.99450 | 22735 ft | 335 kts | 275° |
| 2026-04-28 00:01 | 54.46298 | -2.03434 | 23182 ft | 344 kts | 271° |
| 2026-04-28 00:01 | 54.45857 | -2.07517 | 23696 ft | 351 kts | 269° |
| 2026-04-28 00:01 | 54.45301 | -2.11619 | 24167 ft | 359 kts | 267° |
| 2026-04-28 00:01 | 54.44663 | -2.15850 | 24334 ft | 377 kts | 265° |
| 2026-04-28 00:02 | 54.43953 | -2.20311 | 24333 ft | 398 kts | 263° |
| 2026-04-28 00:02 | 54.43180 | -2.24977 | 24344 ft | 418 kts | 263° |
| 2026-04-28 00:02 | 54.42352 | -2.29836 | 24339 ft | 437 kts | 263° |
| 2026-04-28 00:02 | 54.41479 | -2.34927 | 24348 ft | 454 kts | 262° |
| 2026-04-28 00:03 | 54.40576 | -2.40158 | 24341 ft | 470 kts | 262° |
| 2026-04-28 00:03 | 54.39621 | -2.45663 | 24341 ft | 483 kts | 261° |
| 2026-04-28 00:03 | 54.38657 | -2.51172 | 24338 ft | 486 kts | 261° |
| 2026-04-28 00:03 | 54.37681 | -2.56725 | 24345 ft | 486 kts | 261° |
| 2026-04-28 00:04 | 54.36710 | -2.62230 | 24348 ft | 486 kts | 262° |
| 2026-04-28 00:04 | 54.34773 | -2.73262 | 24350 ft | 486 kts | 261° |
| 2026-04-28 00:04 | 54.33806 | -2.78757 | 24359 ft | 487 kts | 261° |
| 2026-04-28 00:05 | 54.32827 | -2.84309 | 24361 ft | 487 kts | 261° |
| 2026-04-28 00:05 | 54.31840 | -2.89871 | 24356 ft | 484 kts | 261° |
| 2026-04-28 00:05 | 54.30872 | -2.95336 | 24354 ft | 485 kts | 261° |
| 2026-04-28 00:05 | 54.29888 | -3.00866 | 24363 ft | 485 kts | 261° |
| 2026-04-28 00:06 | 54.28914 | -3.06309 | 24361 ft | 484 kts | 261° |
| 2026-04-28 00:06 | 54.27934 | -3.11782 | 24359 ft | 484 kts | 261° |
| 2026-04-28 00:06 | 54.26954 | -3.17249 | 24369 ft | 484 kts | 261° |
| 2026-04-28 00:06 | 54.25964 | -3.22749 | 24368 ft | 484 kts | 261° |
| 2026-04-28 00:07 | 54.24970 | -3.28254 | 24369 ft | 484 kts | 261° |
| 2026-04-28 00:07 | 54.23989 | -3.33662 | 24368 ft | 483 kts | 261° |
| 2026-04-28 00:07 | 54.22986 | -3.39187 | 24372 ft | 485 kts | 261° |
| 2026-04-28 00:07 | 54.21999 | -3.44614 | 24378 ft | 485 kts | 261° |
| 2026-04-28 00:08 | 54.20991 | -3.50118 | 24366 ft | 483 kts | 261° |
| 2026-04-28 00:08 | 54.19989 | -3.55579 | 24369 ft | 482 kts | 261° |
| 2026-04-28 00:08 | 54.18987 | -3.61025 | 24374 ft | 482 kts | 261° |
| 2026-04-28 00:08 | 54.17986 | -3.66461 | 24368 ft | 483 kts | 260° |
| 2026-04-28 00:09 | 54.16991 | -3.71851 | 24371 ft | 482 kts | 261° |
| 2026-04-28 00:09 | 54.15984 | -3.77307 | 24367 ft | 484 kts | 260° |
| 2026-04-28 00:09 | 54.14967 | -3.82776 | 24365 ft | 484 kts | 261° |
| 2026-04-28 00:09 | 54.13942 | -3.88245 | 24357 ft | 482 kts | 261° |
| 2026-04-28 00:10 | 54.12937 | -3.93626 | 24354 ft | 483 kts | 260° |
| 2026-04-28 00:10 | 54.11917 | -3.99069 | 24356 ft | 484 kts | 261° |
| 2026-04-28 00:10 | 54.10891 | -4.04504 | 24132 ft | 482 kts | 260° |
| 2026-04-28 00:10 | 54.09866 | -4.09931 | 23874 ft | 480 kts | 261° |
| 2026-04-28 00:11 | 54.08849 | -4.15300 | 23612 ft | 478 kts | 260° |
| 2026-04-28 00:11 | 54.07841 | -4.20604 | 23370 ft | 476 kts | 260° |
| 2026-04-28 00:11 | 54.06824 | -4.25943 | 23119 ft | 472 kts | 260° |
| 2026-04-28 00:11 | 54.05808 | -4.31270 | 22849 ft | 472 kts | 260° |
| 2026-04-28 00:12 | 54.04798 | -4.36542 | 22526 ft | 469 kts | 260° |
| 2026-04-28 00:12 | 54.03800 | -4.41738 | 22090 ft | 466 kts | 259° |
| 2026-04-28 00:12 | 54.02958 | -4.46969 | 21499 ft | 453 kts | 271° |
| 2026-04-28 00:12 | 54.03093 | -4.52117 | 20963 ft | 422 kts | 294° |
| 2026-04-28 00:13 | 54.04225 | -4.56468 | 20409 ft | 395 kts | 314° |
| 2026-04-28 00:13 | 54.05948 | -4.59891 | 19858 ft | 382 kts | 323° |
| 2026-04-28 00:13 | 54.07794 | -4.63159 | 19214 ft | 382 kts | 322° |
| 2026-04-28 00:13 | 54.09618 | -4.66421 | 18579 ft | 382 kts | 321° |
| 2026-04-28 00:14 | 54.11421 | -4.69708 | 17964 ft | 381 kts | 320° |
| 2026-04-28 00:14 | 54.13201 | -4.72986 | 17377 ft | 380 kts | 319° |
| 2026-04-28 00:14 | 54.14968 | -4.76267 | 16833 ft | 377 kts | 319° |
| 2026-04-28 00:14 | 54.16726 | -4.79543 | 16277 ft | 375 kts | 319° |
| 2026-04-28 00:15 | 54.18472 | -4.82805 | 15677 ft | 374 kts | 319° |
| 2026-04-28 00:15 | 54.20208 | -4.86057 | 15117 ft | 371 kts | 318° |
| 2026-04-28 00:15 | 54.21954 | -4.89329 | 14568 ft | 369 kts | 318° |
| 2026-04-28 00:15 | 54.23664 | -4.92547 | 14025 ft | 367 kts | 318° |
| 2026-04-28 00:16 | 54.25355 | -4.95733 | 13482 ft | 365 kts | 318° |
| 2026-04-28 00:16 | 54.27043 | -4.98912 | 12919 ft | 363 kts | 317° |
| 2026-04-28 00:16 | 54.28738 | -5.02109 | 12380 ft | 361 kts | 317° |
| 2026-04-28 00:16 | 54.30397 | -5.05248 | 11872 ft | 358 kts | 317° |
| 2026-04-28 00:17 | 54.32062 | -5.08399 | 11342 ft | 355 kts | 317° |
| 2026-04-28 00:17 | 54.33698 | -5.11501 | 10921 ft | 349 kts | 317° |
| 2026-04-28 00:17 | 54.35296 | -5.14543 | 10768 ft | 335 kts | 317° |
| 2026-04-28 00:17 | 54.36811 | -5.17434 | 10634 ft | 321 kts | 317° |
| 2026-04-28 00:18 | 54.38257 | -5.20187 | 10522 ft | 307 kts | 317° |
| 2026-04-28 00:18 | 54.39654 | -5.22852 | 10433 ft | 293 kts | 317° |
| 2026-04-28 00:18 | 54.40992 | -5.25405 | 10236 ft | 285 kts | 317° |
| 2026-04-28 00:18 | 54.42308 | -5.27906 | 9887 ft | 282 kts | 317° |
| 2026-04-28 00:19 | 54.43607 | -5.30378 | 9566 ft | 280 kts | 317° |
| 2026-04-28 00:19 | 54.44909 | -5.32861 | 9244 ft | 277 kts | 317° |
| 2026-04-28 00:19 | 54.46206 | -5.35231 | 8926 ft | 273 kts | 319° |
| 2026-04-28 00:19 | 54.47509 | -5.37556 | 8628 ft | 270 kts | 319° |
| 2026-04-28 00:20 | 54.48816 | -5.39886 | 8318 ft | 268 kts | 319° |
| 2026-04-28 00:20 | 54.50088 | -5.42154 | 8008 ft | 266 kts | 319° |
| 2026-04-28 00:20 | 54.51295 | -5.44579 | 7687 ft | 268 kts | 305° |
| 2026-04-28 00:20 | 54.51934 | -5.47600 | 7385 ft | 273 kts | 281° |
| 2026-04-28 00:21 | 54.52058 | -5.50810 | 7106 ft | 272 kts | 275° |
| 2026-04-28 00:21 | 54.52109 | -5.54030 | 6818 ft | 270 kts | 275° |
| 2026-04-28 00:21 | 54.52156 | -5.57237 | 6520 ft | 268 kts | 275° |
| 2026-04-28 00:21 | 54.52213 | -5.60445 | 6230 ft | 267 kts | 275° |
| 2026-04-28 00:22 | 54.52275 | -5.63592 | 5945 ft | 265 kts | 275° |
| 2026-04-28 00:22 | 54.52343 | -5.66748 | 5661 ft | 263 kts | 274° |
| 2026-04-28 00:22 | 54.52411 | -5.69870 | 5389 ft | 261 kts | 274° |
| 2026-04-28 00:22 | 54.52479 | -5.72970 | 5112 ft | 260 kts | 274° |
| 2026-04-28 00:23 | 54.52548 | -5.76084 | 4805 ft | 258 kts | 274° |
| 2026-04-28 00:23 | 54.52614 | -5.79131 | 4542 ft | 254 kts | 274° |
| 2026-04-28 00:23 | 54.52679 | -5.82123 | 4275 ft | 250 kts | 274° |
| 2026-04-28 00:23 | 54.52753 | -5.85355 | 4041 ft | 293 kts | 274° |
| 2026-04-28 00:24 | 54.52829 | -5.88785 | 3887 ft | 283 kts | 273° |
| 2026-04-28 00:24 | 54.52897 | -5.92100 | 3458 ft | 272 kts | 273° |
| 2026-04-28 00:24 | 54.52961 | -5.95280 | 3124 ft | 265 kts | 273° |
| 2026-04-28 00:24 | 54.53025 | -5.98444 | 2874 ft | 259 kts | 274° |
| 2026-04-28 00:25 | 54.53085 | -6.01407 | 2834 ft | 245 kts | 274° |
| 2026-04-28 00:25 | 54.53141 | -6.04270 | 2798 ft | 231 kts | 274° |
| 2026-04-28 00:25 | 54.53194 | -6.06956 | 2758 ft | 218 kts | 274° |
| 2026-04-28 00:25 | 54.53243 | -6.09490 | 2730 ft | 211 kts | 274° |
| 2026-04-28 00:26 | 54.53294 | -6.12018 | 2641 ft | 211 kts | 274° |
| 2026-04-28 00:26 | 54.53344 | -6.14505 | 2531 ft | 210 kts | 275° |
| 2026-04-28 00:26 | 54.53662 | -6.16894 | 2289 ft | 203 kts | 307° |
| 2026-04-28 00:26 | 54.54644 | -6.18368 | 2146 ft | 178 kts | 344° |
| 2026-04-28 00:27 | 54.55809 | -6.18642 | 1918 ft | 162 kts | 1° |
| 2026-04-28 00:27 | 54.56869 | -6.18778 | 1729 ft | 147 kts | 358° |
| 2026-04-28 00:27 | 54.57830 | -6.19014 | 1507 ft | 133 kts | 355° |
| 2026-04-28 00:27 | 54.58719 | -6.19291 | 1349 ft | 130 kts | 353° |
| 2026-04-28 00:28 | 54.59602 | -6.19612 | 1181 ft | 130 kts | 350° |
| 2026-04-28 00:28 | 54.60488 | -6.20004 | 1019 ft | 130 kts | 348° |
| 2026-04-28 00:28 | 54.61357 | -6.20415 | 851 ft | 130 kts | 347° |
| 2026-04-28 00:28 | 54.62223 | -6.20870 | 686 ft | 130 kts | 343° |
| 2026-04-28 00:29 | 54.63072 | -6.21347 | 517 ft | 129 kts | 343° |
| 2026-04-28 00:29 | 54.63925 | -6.21815 | 378 ft | 129 kts | 342° |
| 2026-04-28 00:29 | 54.64764 | -6.22289 | 250 ft | 118 kts | 342° |
| 2026-04-28 00:29 | 54.65326 | -6.22602 | 224 ft | 61 kts | 341° |
| 2026-04-28 00:30 | 54.65624 | -6.22767 | 211 ft | 22 kts | 342° |
| 2026-04-28 00:30 | 54.65722 | -6.22777 | 209 ft | 12 kts | 44° |
| 2026-04-28 00:30 | 54.65746 | -6.22639 | 211 ft | 11 kts | 83° |
| 2026-04-28 00:30 | 54.65754 | -6.22509 | 213 ft | 10 kts | 84° |
| 2026-04-28 00:31 | 54.65762 | -6.22392 | 215 ft | 9 kts | 84° |
| 2026-04-28 00:31 | 54.65770 | -6.22271 | 219 ft | 9 kts | 83° |
| 2026-04-28 00:31 | 54.65778 | -6.22159 | 223 ft | 9 kts | 83° |
| 2026-04-28 00:31 | 54.65797 | -6.22055 | 225 ft | 10 kts | 58° |
| 2026-04-28 00:32 | 54.65947 | -6.21750 | 234 ft | 13 kts | 11° |
| 2026-04-28 00:32 | 54.65995 | -6.21741 | 234 ft | 0 kts | 333° |
| 2026-04-28 00:32 | 54.66000 | -6.21753 | 233 ft | 0 kts | 287° |
| 2026-04-28 00:32 | 54.65997 | -6.21769 | 232 ft | 0 kts | 244° |